PWSweather.com
Personal Weather Stations
Station Observations
MARRWS
Allansford VictoriaAU 3277

Allansford VictoriaAU 3277

Lat: -38.4003683814149, Lon: 142.569826841354

Elevation: 36

Station Type: Fine Offset X7062

http://home.vicnet.net.au/~marr/Weather/

Latest ConditionsUpdated 8:10:03 AM GMT+10:10 Saturday, Oct 19, 2019
Currently Today's Max Today's Min Today's Average
Temperature 48.6°F9.2°C 48.6°F9.2°C 43.3°F6.3°C 45.3°F7.4°C
Dew Point 46.9°F8.3°C 46.9°F8.3°C 43.1°F6.2°C 44.5°F6.9°C
Winds 5.0 mph NE8.0 kmh NE 11.4 mph -18.3 kmh - - 4.7 mph 7.6 kmh
Wind Gusts 11.4 mph18.3 kmh 14.5 mph23.3 kmh - -
Humidity 94% 99% 94% 97%
Pressure 30.21 in1023.0 mb 30.21 in1023.0 mb 30.11 in1019.6 mb -
Precipitation - 0.08 in2.0 mm - -
Hour Temp Dew Point Humidity Winds Wind Gusts Pressure Precip Precip Rate Daily Precip Total
08:10 AM 48.6°F9.2°C 46.9°F8.3°C 94% 5.0 mph NE8.0 kmh NE 11.4 mph18.3 kmh 30.21 in1023.0 mb 0.01 in0.3 mm 0.00 in0.0 mm 0.08 in2.0 mm
08:00 AM 46.9°F8.3°C 45.3°F7.4°C 94% 2.8 mph NNW4.5 kmh NNW 13.0 mph20.9 kmh 30.19 in1022.4 mb 0.01 in0.3 mm 0.00 in0.0 mm 0.08 in2.0 mm
07:50 AM 46.6°F8.1°C 45.2°F7.3°C 95% 6.0 mph W9.7 kmh W 13.0 mph20.9 kmh 30.18 in1022.0 mb 0.01 in0.3 mm 0.00 in0.0 mm 0.08 in2.0 mm
07:40 AM 46.6°F8.1°C 45.2°F7.3°C 95% 6.0 mph W9.7 kmh W 13.0 mph20.9 kmh 30.18 in1022.0 mb 0.01 in0.3 mm 0.06 in1.5 mm 0.08 in2.0 mm
07:30 AM 44.8°F7.1°C 44.5°F6.9°C 99% 11.4 mph N18.3 kmh N 14.5 mph23.3 kmh 30.17 in1021.7 mb 0.00 in0.0 mm 0.00 in0.0 mm 0.07 in1.8 mm
07:20 AM 44.8°F7.1°C 44.5°F6.9°C 99% 11.4 mph N18.3 kmh N 14.5 mph23.3 kmh 30.17 in1021.7 mb 0.00 in0.0 mm 0.00 in0.0 mm 0.07 in1.8 mm
07:10 AM 44.8°F7.1°C 44.5°F6.9°C 99% 11.4 mph N18.3 kmh N 14.5 mph23.3 kmh 30.16 in1021.3 mb 0.00 in0.0 mm 0.00 in0.0 mm 0.07 in1.8 mm
07:00 AM 44.8°F7.1°C 44.5°F6.9°C 99% 11.4 mph N18.3 kmh N 14.5 mph23.3 kmh 30.16 in1021.3 mb 0.00 in0.0 mm 0.00 in0.0 mm 0.07 in1.8 mm
06:50 AM 44.8°F7.1°C 44.5°F6.9°C 99% 11.4 mph N18.3 kmh N 14.5 mph23.3 kmh 30.16 in1021.3 mb 0.00 in0.0 mm 0.00 in0.0 mm 0.07 in1.8 mm
06:40 AM 44.8°F7.1°C 44.5°F6.9°C 99% 9.8 mph N15.8 kmh N 14.5 mph23.3 kmh 30.16 in1021.3 mb 0.00 in0.0 mm 0.00 in0.0 mm 0.07 in1.8 mm
06:30 AM 44.4°F6.9°C 44.2°F6.8°C 99% Calm Calm 0.7 mph1.1 kmh 30.15 in1021.0 mb 0.01 in0.3 mm 0.00 in0.0 mm 0.07 in1.8 mm
06:20 AM 44.4°F6.9°C 44.2°F6.8°C 99% Calm Calm 0.7 mph1.1 kmh 30.14 in1020.7 mb 0.01 in0.3 mm 0.00 in0.0 mm 0.07 in1.8 mm
06:10 AM 44.4°F6.9°C 44.2°F6.8°C 99% Calm Calm 0.7 mph1.1 kmh 30.14 in1020.7 mb 0.01 in0.3 mm 0.00 in0.0 mm 0.07 in1.8 mm
06:00 AM 44.4°F6.9°C 44.2°F6.8°C 99% Calm Calm 0.7 mph1.1 kmh 30.14 in1020.7 mb 0.01 in0.3 mm 0.00 in0.0 mm 0.07 in1.8 mm
05:50 AM 44.4°F6.9°C 44.2°F6.8°C 99% Calm Calm 0.7 mph1.1 kmh 30.14 in1020.7 mb 0.01 in0.3 mm 0.00 in0.0 mm 0.07 in1.8 mm
05:40 AM 44.4°F6.9°C 44.2°F6.8°C 99% Calm Calm 0.7 mph1.1 kmh 30.13 in1020.3 mb 0.01 in0.3 mm 0.06 in1.5 mm 0.07 in1.8 mm
05:30 AM 44.1°F6.7°C 43.8°F6.6°C 99% 0.4 mph N0.6 kmh N 2.2 mph3.5 kmh 30.14 in1020.7 mb 0.00 in0.0 mm 0.00 in0.0 mm 0.06 in1.5 mm
05:20 AM 44.8°F7.1°C 44.5°F6.9°C 99% 5.4 mph E8.7 kmh E 6.9 mph11.1 kmh 30.13 in1020.3 mb 0.00 in0.0 mm 0.00 in0.0 mm 0.06 in1.5 mm
05:10 AM 44.8°F7.1°C 44.5°F6.9°C 99% 5.4 mph E8.7 kmh E 6.9 mph11.1 kmh 30.13 in1020.3 mb 0.00 in0.0 mm 0.00 in0.0 mm 0.06 in1.5 mm
05:00 AM 44.8°F7.1°C 44.5°F6.9°C 99% 5.4 mph E8.7 kmh E 7.6 mph12.2 kmh 30.13 in1020.3 mb 0.00 in0.0 mm 0.00 in0.0 mm 0.06 in1.5 mm
04:50 AM 44.6°F7.0°C 44.3°F6.8°C 99% 3.9 mph ENE6.3 kmh ENE 7.6 mph12.2 kmh 30.13 in1020.3 mb 0.00 in0.0 mm 0.00 in0.0 mm 0.06 in1.5 mm
04:40 AM 44.6°F7.0°C 44.3°F6.8°C 99% 3.1 mph NE5.0 kmh NE 4.5 mph7.2 kmh 30.11 in1019.6 mb 0.00 in0.0 mm 0.00 in0.0 mm 0.06 in1.5 mm
04:30 AM 43.3°F6.3°C 43.1°F6.2°C 99% 3.1 mph NE5.0 kmh NE 4.5 mph7.2 kmh 30.12 in1020.0 mb 0.00 in0.0 mm 0.00 in0.0 mm 0.06 in1.5 mm
04:20 AM 43.3°F6.3°C 43.1°F6.2°C 99% 3.1 mph NE5.0 kmh NE 4.5 mph7.2 kmh 30.12 in1020.0 mb 0.00 in0.0 mm 0.00 in0.0 mm 0.06 in1.5 mm
04:10 AM 43.3°F6.3°C 43.1°F6.2°C 99% 3.1 mph NE5.0 kmh NE 4.5 mph7.2 kmh 30.12 in1020.0 mb 0.00 in0.0 mm 0.00 in0.0 mm 0.06 in1.5 mm
04:00 AM 43.3°F6.3°C 43.1°F6.2°C 99% 3.9 mph NE6.3 kmh NE 6.9 mph11.1 kmh 30.12 in1020.0 mb 0.00 in0.0 mm 0.00 in0.0 mm 0.06 in1.5 mm
03:50 AM 44.1°F6.7°C 43.8°F6.6°C 99% 5.4 mph NE8.7 kmh NE 6.9 mph11.1 kmh 30.12 in1020.0 mb 0.00 in0.0 mm 0.00 in0.0 mm 0.06 in1.5 mm
03:40 AM 44.1°F6.7°C 43.8°F6.6°C 99% 5.4 mph NE8.7 kmh NE 6.9 mph11.1 kmh 30.12 in1020.0 mb 0.00 in0.0 mm 0.00 in0.0 mm 0.06 in1.5 mm
03:30 AM 45.1°F7.3°C 44.9°F7.2°C 99% 4.5 mph N7.2 kmh N 6.9 mph11.1 kmh 30.12 in1020.0 mb 0.00 in0.0 mm 0.00 in0.0 mm 0.06 in1.5 mm
03:20 AM 45.1°F7.3°C 44.9°F7.2°C 99% 4.5 mph N7.2 kmh N 6.9 mph11.1 kmh 30.12 in1020.0 mb 0.00 in0.0 mm 0.00 in0.0 mm 0.06 in1.5 mm
03:10 AM 45.1°F7.3°C 44.9°F7.2°C 99% 4.5 mph N7.2 kmh N 6.9 mph11.1 kmh 30.12 in1020.0 mb 0.00 in0.0 mm 0.00 in0.0 mm 0.06 in1.5 mm
03:00 AM 45.1°F7.3°C 44.9°F7.2°C 99% 4.5 mph N7.2 kmh N 6.9 mph11.1 kmh 30.13 in1020.3 mb 0.00 in0.0 mm 0.00 in0.0 mm 0.06 in1.5 mm
02:50 AM 45.1°F7.3°C 44.9°F7.2°C 99% 4.5 mph N7.2 kmh N 6.9 mph11.1 kmh 30.13 in1020.3 mb 0.00 in0.0 mm 0.00 in0.0 mm 0.06 in1.5 mm
02:40 AM 45.7°F7.6°C 44.3°F6.8°C 95% 3.8 mph N6.1 kmh N 5.4 mph8.7 kmh 30.13 in1020.3 mb 0.00 in0.0 mm 0.00 in0.0 mm 0.06 in1.5 mm
02:30 AM 45.7°F7.6°C 44.3°F6.8°C 95% 3.8 mph N6.1 kmh N 5.4 mph8.7 kmh 30.12 in1020.0 mb 0.00 in0.0 mm 0.00 in0.0 mm 0.06 in1.5 mm
02:20 AM 45.7°F7.6°C 44.3°F6.8°C 95% 3.8 mph N6.1 kmh N 5.4 mph8.7 kmh 30.12 in1020.0 mb 0.00 in0.0 mm 0.00 in0.0 mm 0.06 in1.5 mm
02:10 AM 45.7°F7.6°C 44.3°F6.8°C 95% 3.8 mph N6.1 kmh N 5.4 mph8.7 kmh 30.13 in1020.3 mb 0.00 in0.0 mm 0.00 in0.0 mm 0.06 in1.5 mm
02:00 AM 45.7°F7.6°C 44.3°F6.8°C 95% 3.8 mph N6.1 kmh N 5.4 mph8.7 kmh 30.13 in1020.3 mb 0.00 in0.0 mm 0.00 in0.0 mm 0.06 in1.5 mm
01:50 AM 45.7°F7.6°C 44.3°F6.8°C 95% 3.8 mph N6.1 kmh N 5.4 mph8.7 kmh 30.14 in1020.7 mb 0.05 in1.3 mm 0.00 in0.0 mm 0.06 in1.5 mm
01:40 AM 45.7°F7.6°C 44.3°F6.8°C 95% 3.8 mph N6.1 kmh N 5.4 mph8.7 kmh 30.13 in1020.3 mb 0.05 in1.3 mm 0.00 in0.0 mm 0.06 in1.5 mm
01:30 AM 45.7°F7.6°C 44.3°F6.8°C 95% 3.8 mph N6.1 kmh N 5.4 mph8.7 kmh 30.14 in1020.7 mb 0.05 in1.3 mm 0.00 in0.0 mm 0.06 in1.5 mm
01:20 AM 45.7°F7.6°C 44.3°F6.8°C 95% 3.8 mph N6.1 kmh N 5.4 mph8.7 kmh 30.14 in1020.7 mb 0.05 in1.3 mm 0.00 in0.0 mm 0.06 in1.5 mm
01:10 AM 45.7°F7.6°C 44.3°F6.8°C 95% 3.8 mph N6.1 kmh N 5.4 mph8.7 kmh 30.14 in1020.7 mb 0.05 in1.3 mm 0.00 in0.0 mm 0.06 in1.5 mm
01:00 AM 45.7°F7.6°C 44.3°F6.8°C 95% 3.8 mph N6.1 kmh N 5.4 mph8.7 kmh 30.14 in1020.7 mb 0.05 in1.3 mm 0.06 in1.5 mm 0.06 in1.5 mm
12:50 AM 46.9°F8.3°C 45.6°F7.6°C 95% 6.0 mph N9.7 kmh N 7.6 mph12.2 kmh 30.15 in1021.0 mb 0.00 in0.0 mm 0.00 in0.0 mm 0.01 in0.3 mm
12:40 AM 46.9°F8.3°C 45.6°F7.6°C 95% 6.0 mph N9.7 kmh N 7.6 mph12.2 kmh 30.16 in1021.3 mb 0.01 in0.3 mm 0.00 in0.0 mm 0.01 in0.3 mm
12:30 AM 46.9°F8.3°C 45.6°F7.6°C 95% 6.0 mph N9.7 kmh N 7.6 mph12.2 kmh 30.16 in1021.3 mb 0.01 in0.3 mm 0.00 in0.0 mm 0.01 in0.3 mm
12:20 AM 46.9°F8.3°C 45.6°F7.6°C 95% 6.0 mph N9.7 kmh N 7.6 mph12.2 kmh 30.16 in1021.3 mb 0.01 in0.3 mm 0.00 in0.0 mm 0.01 in0.3 mm
12:10 AM 46.9°F8.3°C 45.6°F7.6°C 95% 6.0 mph N9.7 kmh N 7.6 mph12.2 kmh 30.14 in1020.7 mb 0.01 in0.3 mm 0.00 in0.0 mm 0.01 in0.3 mm
12:00 AM 46.9°F8.3°C 45.6°F7.6°C 95% 6.0 mph N9.7 kmh N 7.6 mph12.2 kmh 30.14 in1020.7 mb 0.01 in0.3 mm 0.00 in0.0 mm 0.01 in0.3 mm